createdAt,value
2019-02-20T00:00:47.514Z,11.63
2019-02-20T00:03:15.499Z,10.57
2019-02-20T00:05:42.971Z,19.13
2019-02-20T00:08:10.382Z,8.77
2019-02-20T00:10:37.799Z,14.67
2019-02-20T00:13:05.291Z,11.97
2019-02-20T00:15:32.696Z,19.50
2019-02-20T00:18:00.088Z,22.93
2019-02-20T00:20:27.512Z,13.77
2019-02-20T00:22:54.899Z,16.13
2019-02-20T00:25:22.318Z,17.63
2019-02-20T00:27:49.716Z,15.47
2019-02-20T00:30:17.234Z,8.50
2019-02-20T00:32:44.660Z,10.20
2019-02-20T00:35:12.078Z,21.53
2019-02-20T00:37:39.476Z,18.03
2019-02-20T00:40:08.373Z,10.60
2019-02-20T00:42:35.761Z,14.90
2019-02-20T00:45:04.888Z,12.90
2019-02-20T00:47:36.977Z,11.23
2019-02-20T00:50:05.350Z,12.77
2019-02-20T00:52:49.674Z,13.27
2019-02-20T00:55:12.377Z,10.17
2019-02-20T00:57:39.764Z,10.57
2019-02-20T01:00:09.138Z,13.37
2019-02-20T01:02:36.599Z,14.13
2019-02-20T01:05:04.854Z,26.05
2019-02-20T01:07:32.296Z,16.87
2019-02-20T01:09:59.716Z,15.83
2019-02-20T01:12:27.115Z,24.40
2019-02-20T01:14:54.603Z,15.40
2019-02-20T01:17:21.992Z,11.25
2019-02-20T01:19:49.408Z,7.87
2019-02-20T01:22:16.807Z,13.60
2019-02-20T01:24:44.392Z,11.23
2019-02-20T01:27:11.790Z,14.13
2019-02-20T01:29:39.206Z,17.97
2019-02-20T01:32:06.598Z,8.80
2019-02-20T01:34:34.082Z,6.70
2019-02-20T01:37:01.478Z,9.23
2019-02-20T01:39:28.904Z,9.77
2019-02-20T01:41:56.292Z,8.90
2019-02-20T01:44:23.714Z,14.60
2019-02-20T01:46:51.112Z,14.67
2019-02-20T01:49:18.510Z,9.87
2019-02-20T01:51:45.931Z,7.20
2019-02-20T01:54:13.339Z,17.97
2019-02-20T01:56:40.735Z,9.90
2019-02-20T01:59:08.155Z,13.67
2019-02-20T02:01:35.545Z,18.87
2019-02-20T02:04:03.090Z,21.53
2019-02-20T02:06:30.538Z,13.97
2019-02-20T02:08:59.624Z,17.73
2019-02-20T02:11:26.958Z,8.70
2019-02-20T02:13:54.351Z,11.57
2019-02-20T02:16:21.765Z,9.30
2019-02-20T02:18:49.221Z,12.70
2019-02-20T02:21:16.634Z,13.07
2019-02-20T02:23:44.096Z,9.40
2019-02-20T02:26:11.523Z,12.50
2019-02-20T02:28:38.914Z,9.77
2019-02-20T02:31:06.332Z,7.20
2019-02-20T02:33:33.721Z,11.00
2019-02-20T02:36:01.145Z,11.60
2019-02-20T02:38:28.529Z,10.30
2019-02-20T02:40:55.943Z,21.57
2019-02-20T02:43:23.340Z,10.50
2019-02-20T02:45:50.765Z,10.00
2019-02-20T02:48:18.159Z,7.57
2019-02-20T02:50:45.576Z,13.40
2019-02-20T02:53:12.966Z,12.60
2019-02-20T02:55:40.388Z,14.90
2019-02-20T02:58:07.779Z,7.63
2019-02-20T03:00:35.207Z,8.57
2019-02-20T03:03:02.578Z,7.43
2019-02-20T03:05:29.995Z,8.60
2019-02-20T03:07:57.402Z,11.67
2019-02-20T03:10:24.830Z,10.57
2019-02-20T03:12:52.214Z,13.43
2019-02-20T03:15:19.642Z,8.87
2019-02-20T03:17:47.059Z,9.90
2019-02-20T03:20:14.456Z,11.67
2019-02-20T03:22:41.854Z,16.07
2019-02-20T03:25:09.275Z,8.00
2019-02-20T03:27:36.667Z,11.97
2019-02-20T03:30:05.306Z,9.93
2019-02-20T03:32:32.698Z,9.90
2019-02-20T03:35:00.957Z,9.07
2019-02-20T03:37:28.386Z,10.63
2019-02-20T03:39:55.771Z,9.90
2019-02-20T03:42:23.189Z,7.20
2019-02-20T03:44:50.586Z,10.10
2019-02-20T03:47:20.160Z,12.10
2019-02-20T03:49:47.034Z,8.07
2019-02-20T03:52:14.454Z,8.05
2019-02-20T03:54:41.850Z,13.57
2019-02-20T03:57:09.271Z,7.47
2019-02-20T03:59:36.735Z,8.30
2019-02-20T04:02:04.146Z,7.83
2019-02-20T04:04:31.537Z,10.40
2019-02-20T04:06:58.959Z,10.47
2019-02-20T04:09:26.363Z,12.40
2019-02-20T04:11:53.779Z,15.80
2019-02-20T04:14:21.175Z,11.30
2019-02-20T04:16:48.594Z,7.40
2019-02-20T04:19:15.978Z,6.77
2019-02-20T04:21:43.388Z,9.67
2019-02-20T04:24:10.763Z,8.80
2019-02-20T04:26:38.794Z,9.60
2019-02-20T04:29:06.157Z,9.23
2019-02-20T04:31:33.581Z,10.63
2019-02-20T04:34:00.971Z,12.97
2019-02-20T04:36:28.381Z,9.50
2019-02-20T04:38:55.769Z,8.47
2019-02-20T04:41:23.181Z,6.87
2019-02-20T04:43:50.568Z,8.20
2019-02-20T04:46:17.978Z,9.00
2019-02-20T04:48:45.362Z,9.43
2019-02-20T04:51:12.790Z,7.43
2019-02-20T04:53:40.174Z,8.87
2019-02-20T04:56:07.663Z,12.00
2019-02-20T04:58:35.121Z,8.23
2019-02-20T05:01:02.604Z,8.07
2019-02-20T05:03:30.000Z,8.13
2019-02-20T05:05:57.400Z,11.77
2019-02-20T05:08:24.830Z,10.10
2019-02-20T05:10:52.212Z,9.80
2019-02-20T05:13:19.637Z,8.03
2019-02-20T05:15:47.020Z,7.60
2019-02-20T05:18:14.431Z,7.37
2019-02-20T05:20:41.827Z,7.00
2019-02-20T05:23:09.258Z,12.53
2019-02-20T05:25:36.644Z,7.40
2019-02-20T05:28:04.058Z,6.83
2019-02-20T05:30:31.461Z,9.20
2019-02-20T05:32:58.875Z,7.13
2019-02-20T05:35:26.262Z,9.93
2019-02-20T05:37:53.682Z,8.40
2019-02-20T05:40:21.076Z,10.37
2019-02-20T05:42:48.501Z,11.37
2019-02-20T05:45:15.886Z,9.90
2019-02-20T05:47:43.414Z,69.23
2019-02-20T05:50:10.852Z,123.77
2019-02-20T05:52:38.279Z,141.23
2019-02-20T05:55:06.451Z,118.13
2019-02-20T05:57:33.886Z,101.87
2019-02-20T06:00:01.293Z,109.93
2019-02-20T06:02:28.796Z,90.97
2019-02-20T06:04:56.180Z,70.27
2019-02-20T06:07:23.608Z,88.70
2019-02-20T06:09:51.009Z,62.90
2019-02-20T06:12:18.436Z,48.50
2019-02-20T06:14:45.832Z,41.60
2019-02-20T06:17:13.230Z,58.90
2019-02-20T06:19:40.664Z,39.07
2019-02-20T06:22:08.058Z,41.03
2019-02-20T06:24:43.851Z,36.50
2019-02-20T06:27:04.561Z,32.63
2019-02-20T06:29:32.156Z,40.30
2019-02-20T06:31:59.556Z,38.33
2019-02-20T06:34:26.975Z,29.80
2019-02-20T06:36:54.378Z,24.87
2019-02-20T06:39:21.798Z,43.63
2019-02-20T06:41:49.203Z,27.53
2019-02-20T06:44:16.635Z,28.23
2019-02-20T06:46:44.043Z,28.97
2019-02-20T06:49:11.464Z,24.03
2019-02-20T06:51:38.862Z,27.67
2019-02-20T06:54:06.275Z,27.20
2019-02-20T06:56:33.673Z,21.67
2019-02-20T06:59:01.105Z,28.13
2019-02-20T07:01:28.496Z,21.80
2019-02-20T07:03:55.920Z,21.43
2019-02-20T07:06:30.673Z,24.13
2019-02-20T07:09:08.787Z,16.27
2019-02-20T07:11:37.726Z,24.57
2019-02-20T07:14:09.599Z,19.53
2019-02-20T07:16:38.526Z,15.00
2019-02-20T07:19:07.503Z,24.53
2019-02-20T07:21:42.599Z,23.20
2019-02-20T07:24:14.670Z,18.23
2019-02-20T07:27:01.661Z,16.27
2019-02-20T07:29:43.801Z,14.97
2019-02-20T07:32:12.739Z,14.83
2019-02-20T07:34:40.151Z,15.07
2019-02-20T07:37:07.553Z,17.27
2019-02-20T07:39:34.973Z,17.47
2019-02-20T07:42:02.382Z,12.53
2019-02-20T07:44:29.794Z,14.43
2019-02-20T07:46:57.192Z,13.80
2019-02-20T07:49:24.611Z,13.67
2019-02-20T07:51:52.025Z,15.10
2019-02-20T07:54:19.445Z,13.00
2019-02-20T07:56:46.848Z,14.00
2019-02-20T07:59:14.259Z,11.87
2019-02-20T08:01:41.652Z,12.53
2019-02-20T08:04:09.045Z,14.17
2019-02-20T08:06:36.467Z,12.17
2019-02-20T08:09:04.729Z,12.07
2019-02-20T08:11:32.161Z,12.77
2019-02-20T08:13:59.553Z,16.43
2019-02-20T08:16:26.976Z,10.83
2019-02-20T08:18:54.363Z,11.03
2019-02-20T08:21:21.806Z,10.47
2019-02-20T08:23:49.208Z,13.00
2019-02-20T08:26:16.828Z,13.00
2019-02-20T08:28:44.221Z,11.00
2019-02-20T08:31:11.651Z,8.60
2019-02-20T08:33:39.034Z,12.23
2019-02-20T08:36:06.451Z,12.17
2019-02-20T08:38:33.848Z,11.27
2019-02-20T08:41:01.262Z,13.10
2019-02-20T08:43:28.661Z,9.70
2019-02-20T08:45:56.082Z,9.30
2019-02-20T08:48:23.466Z,11.80
2019-02-20T08:50:50.896Z,12.73
2019-02-20T08:53:18.284Z,9.00
2019-02-20T08:55:45.692Z,13.20
2019-02-20T08:58:13.088Z,9.93
2019-02-20T09:00:40.518Z,11.37
2019-02-20T09:03:07.903Z,13.60
2019-02-20T09:05:35.302Z,8.77
2019-02-20T09:08:02.735Z,18.80
2019-02-20T09:10:30.120Z,10.43
2019-02-20T09:12:57.533Z,13.33
2019-02-20T09:15:25.005Z,12.10
2019-02-20T09:17:52.426Z,6.87
2019-02-20T09:20:19.819Z,9.63
2019-02-20T09:22:47.239Z,7.73
2019-02-20T09:25:19.869Z,8.47
2019-02-20T09:27:43.698Z,6.93
2019-02-20T09:30:14.846Z,7.80
2019-02-20T09:32:42.327Z,8.03
2019-02-20T09:35:09.787Z,5.97
2019-02-20T09:37:37.213Z,7.17
2019-02-20T09:40:06.143Z,8.80
2019-02-20T09:42:33.631Z,6.73
2019-02-20T09:45:01.022Z,10.03
2019-02-20T09:47:28.440Z,9.07
2019-02-20T09:49:55.836Z,7.23
2019-02-20T09:52:23.244Z,8.63
2019-02-20T09:54:50.631Z,9.97
2019-02-20T09:57:18.047Z,7.93
2019-02-20T09:59:45.435Z,7.70
2019-02-20T10:02:12.861Z,7.70
2019-02-20T10:04:40.245Z,6.87
2019-02-20T10:07:07.660Z,6.57
2019-02-20T10:09:36.632Z,7.20
2019-02-20T10:12:04.063Z,7.10
2019-02-20T10:14:31.449Z,10.03
2019-02-20T10:16:58.935Z,9.60
2019-02-20T10:19:26.319Z,6.70
2019-02-20T10:21:53.704Z,9.53
2019-02-20T10:24:21.115Z,7.03
2019-02-20T10:26:48.506Z,9.03
2019-02-20T10:29:15.916Z,7.00
2019-02-20T10:31:43.315Z,9.03
2019-02-20T10:34:11.249Z,5.97
2019-02-20T10:36:38.713Z,8.47
2019-02-20T10:39:06.125Z,7.13
2019-02-20T10:41:33.514Z,8.13
2019-02-20T10:44:00.929Z,7.50
2019-02-20T10:46:28.311Z,7.60
2019-02-20T10:48:55.726Z,8.37
2019-02-20T10:51:23.122Z,7.13
2019-02-20T10:53:50.547Z,8.60
2019-02-20T10:56:17.944Z,8.87
2019-02-20T10:58:45.356Z,7.10
2019-02-20T11:01:12.747Z,5.73
2019-02-20T11:03:40.161Z,6.43
2019-02-20T11:06:07.547Z,5.87
2019-02-20T11:08:35.035Z,6.80
2019-02-20T11:11:02.431Z,7.57
2019-02-20T11:13:29.860Z,6.60
2019-02-20T11:15:58.858Z,9.57
2019-02-20T11:18:26.363Z,6.53
2019-02-20T11:20:53.751Z,7.40
2019-02-20T11:23:21.171Z,6.37
2019-02-20T11:25:48.561Z,8.47
2019-02-20T11:28:15.970Z,8.93
2019-02-20T11:30:43.354Z,8.17
2019-02-20T11:33:10.837Z,8.20
2019-02-20T11:35:38.233Z,7.50
2019-02-20T11:38:05.655Z,7.27
2019-02-20T11:40:33.113Z,5.87
2019-02-20T11:43:00.517Z,5.80
2019-02-20T11:45:27.923Z,7.87
2019-02-20T11:47:55.327Z,6.17
2019-02-20T11:50:22.739Z,5.67
2019-02-20T11:52:50.130Z,7.37
2019-02-20T11:55:17.555Z,5.90
2019-02-20T11:57:44.942Z,5.63
2019-02-20T12:00:16.168Z,6.57
2019-02-20T12:02:43.562Z,7.57
2019-02-20T12:05:11.059Z,5.30
2019-02-20T12:07:38.517Z,7.00
2019-02-20T12:10:07.283Z,5.63
2019-02-20T12:12:34.748Z,5.77
2019-02-20T12:15:02.269Z,5.20
2019-02-20T12:17:29.599Z,7.23
2019-02-20T12:19:57.145Z,7.00
2019-02-20T12:22:24.527Z,4.80
2019-02-20T12:24:51.946Z,5.80
2019-02-20T12:27:19.339Z,5.97
2019-02-20T12:29:46.753Z,5.27
2019-02-20T12:32:14.133Z,5.30
2019-02-20T12:34:41.545Z,5.27
2019-02-20T12:37:08.938Z,5.00
2019-02-20T12:39:36.347Z,6.17
2019-02-20T12:42:03.740Z,4.97
2019-02-20T12:44:31.173Z,5.57
2019-02-20T12:46:58.559Z,5.27
2019-02-20T12:49:25.961Z,6.80
2019-02-20T12:51:53.358Z,4.10
2019-02-20T12:54:20.762Z,5.57
2019-02-20T12:56:48.152Z,4.50
2019-02-20T12:59:15.632Z,7.20
2019-02-20T13:01:43.096Z,6.20
2019-02-20T13:04:10.516Z,6.53
2019-02-20T13:06:37.906Z,4.33
2019-02-20T13:09:07.110Z,4.20
2019-02-20T13:11:34.528Z,6.30
2019-02-20T13:14:01.911Z,4.10
2019-02-20T13:16:29.334Z,4.17
2019-02-20T13:18:56.717Z,4.87
2019-02-20T13:21:24.131Z,5.40
2019-02-20T13:23:51.519Z,5.30
2019-02-20T13:26:18.930Z,5.30
2019-02-20T13:28:46.320Z,3.67
2019-02-20T13:31:13.735Z,4.27
2019-02-20T13:33:41.126Z,4.20
2019-02-20T13:36:08.620Z,5.13
2019-02-20T13:38:36.017Z,5.70
2019-02-20T13:41:03.441Z,4.30
2019-02-20T13:43:30.838Z,3.80
2019-02-20T13:45:58.259Z,5.67
2019-02-20T13:48:25.638Z,4.33
2019-02-20T13:50:53.065Z,4.20
2019-02-20T13:53:20.455Z,4.03
2019-02-20T13:55:47.868Z,4.07
2019-02-20T13:58:15.259Z,3.90
2019-02-20T14:00:43.674Z,4.57
2019-02-20T14:03:11.067Z,7.10
2019-02-20T14:05:38.478Z,4.20
2019-02-20T14:08:05.869Z,3.90
2019-02-20T14:10:33.286Z,4.10
2019-02-20T14:13:00.683Z,3.27
2019-02-20T14:15:28.093Z,6.20
2019-02-20T14:17:55.482Z,3.43
2019-02-20T14:20:23.096Z,4.43
2019-02-20T14:22:50.484Z,5.20
2019-02-20T14:25:17.902Z,3.53
2019-02-20T14:27:45.292Z,3.67
2019-02-20T14:30:12.738Z,4.97
2019-02-20T14:32:40.119Z,3.93
2019-02-20T14:35:09.070Z,3.60
2019-02-20T14:37:36.769Z,4.17
2019-02-20T14:40:05.046Z,3.70
2019-02-20T14:42:32.454Z,4.00
2019-02-20T14:44:59.850Z,5.20
2019-02-20T14:47:27.266Z,4.27
2019-02-20T14:49:54.654Z,4.43
2019-02-20T14:52:22.070Z,4.80
2019-02-20T14:54:49.470Z,4.93
2019-02-20T14:57:19.652Z,3.80
2019-02-20T14:59:46.224Z,2.80
2019-02-20T15:02:13.647Z,3.43
2019-02-20T15:04:41.030Z,2.93
2019-02-20T15:07:08.446Z,3.90
2019-02-20T15:09:35.828Z,4.00
2019-02-20T15:12:03.254Z,4.40
2019-02-20T15:14:30.942Z,3.80
2019-02-20T15:16:58.365Z,3.27
2019-02-20T15:19:25.750Z,4.00
2019-02-20T15:21:53.173Z,3.07
2019-02-20T15:24:20.563Z,3.60
2019-02-20T15:26:47.981Z,6.90
2019-02-20T15:29:15.441Z,2.70
2019-02-20T15:31:42.946Z,3.70
2019-02-20T15:34:10.331Z,3.93
2019-02-20T15:36:37.750Z,4.40
2019-02-20T15:39:05.416Z,2.97
2019-02-20T15:41:32.897Z,2.60
2019-02-20T15:44:00.286Z,3.63
2019-02-20T15:46:27.700Z,3.50
2019-02-20T15:48:55.086Z,3.77
2019-02-20T15:51:22.814Z,3.07
2019-02-20T15:53:50.260Z,2.63
2019-02-20T15:56:17.674Z,2.87
2019-02-20T15:58:45.070Z,2.80
2019-02-20T16:01:12.499Z,3.13
2019-02-20T16:03:39.959Z,3.50
2019-02-20T16:06:07.447Z,4.70
2019-02-20T16:08:34.833Z,5.10
2019-02-20T16:11:02.515Z,3.90
2019-02-20T16:13:29.908Z,4.63
2019-02-20T16:15:57.331Z,2.73
2019-02-20T16:18:24.715Z,3.77
2019-02-20T16:20:52.214Z,3.57
2019-02-20T16:23:19.603Z,3.10
2019-02-20T16:25:47.027Z,4.87
2019-02-20T16:28:14.786Z,2.70
2019-02-20T16:30:42.182Z,3.47
2019-02-20T16:33:09.598Z,3.67
2019-02-20T16:35:36.995Z,3.00
2019-02-20T16:38:04.483Z,2.57
2019-02-20T16:40:31.939Z,2.60
2019-02-20T16:42:59.360Z,3.13
2019-02-20T16:45:26.809Z,3.10
2019-02-20T16:47:54.523Z,3.47
2019-02-20T16:50:21.977Z,3.10
2019-02-20T16:52:49.457Z,3.63
2019-02-20T16:55:19.092Z,5.20
2019-02-20T16:57:45.912Z,2.60
2019-02-20T17:00:14.267Z,3.00
2019-02-20T17:02:41.756Z,4.60
2019-02-20T17:05:14.176Z,3.30
2019-02-20T17:07:40.050Z,4.60
2019-02-20T17:10:09.021Z,3.10
2019-02-20T17:12:36.706Z,3.63
2019-02-20T17:15:06.276Z,3.75
2019-02-20T17:17:33.687Z,3.80
2019-02-20T17:20:01.081Z,4.03
2019-02-20T17:22:28.759Z,2.77
2019-02-20T17:24:56.147Z,5.30
2019-02-20T17:27:23.567Z,2.87
2019-02-20T17:29:51.041Z,3.53
2019-02-20T17:32:18.523Z,3.33
2019-02-20T17:34:45.975Z,3.23
2019-02-20T17:37:13.376Z,3.60
2019-02-20T17:39:41.066Z,3.00
2019-02-20T17:42:08.488Z,4.17
2019-02-20T17:44:35.938Z,3.20
2019-02-20T17:47:03.321Z,5.90
2019-02-20T17:49:30.739Z,4.12
2019-02-20T17:51:58.126Z,4.43
2019-02-20T17:54:25.555Z,3.20
2019-02-20T17:56:53.256Z,4.90
2019-02-20T17:59:20.699Z,3.17
2019-02-20T18:01:48.305Z,5.43
2019-02-20T18:04:15.716Z,3.93
2019-02-20T18:06:43.197Z,11.00
2019-02-20T18:09:11.154Z,6.80
2019-02-20T18:11:38.567Z,5.70
2019-02-20T18:14:06.054Z,4.40
2019-02-20T18:16:33.437Z,4.40
2019-02-20T18:19:00.853Z,5.10
2019-02-20T18:21:28.245Z,3.83
2019-02-20T18:23:55.667Z,4.40
2019-02-20T18:26:23.059Z,6.37
2019-02-20T18:28:50.470Z,4.90
2019-02-20T18:31:17.857Z,9.30
2019-02-20T18:33:45.283Z,3.40
2019-02-20T18:36:12.750Z,3.50
2019-02-20T18:38:40.167Z,6.67
2019-02-20T18:41:07.618Z,21.93
2019-02-20T18:43:35.033Z,6.90
2019-02-20T18:46:02.441Z,14.50
2019-02-20T18:48:29.867Z,5.83
2019-02-20T18:50:57.324Z,11.10
2019-02-20T18:53:24.761Z,4.33
2019-02-20T18:55:52.188Z,8.20
2019-02-20T18:58:19.578Z,12.53
2019-02-20T19:00:46.981Z,11.47
2019-02-20T19:03:14.418Z,17.37
2019-02-20T19:05:41.779Z,4.17
2019-02-20T19:08:13.703Z,9.20
2019-02-20T19:10:41.371Z,7.73
2019-02-20T19:13:12.967Z,10.70
2019-02-20T19:15:47.895Z,8.33
2019-02-20T19:18:22.599Z,6.77
2019-02-20T19:20:51.583Z,7.50
2019-02-20T19:23:23.173Z,5.17
2019-02-20T19:26:00.825Z,15.73
2019-02-20T19:28:43.979Z,4.53
2019-02-20T19:31:12.259Z,8.83
2019-02-20T19:33:47.170Z,13.13
2019-02-20T19:36:16.130Z,4.47
2019-02-20T19:38:45.076Z,8.33
2019-02-20T19:41:22.714Z,7.77
2019-02-20T19:43:54.371Z,18.30
2019-02-20T19:46:32.121Z,9.10
2019-02-20T19:49:01.074Z,8.53
2019-02-20T19:51:36.150Z,7.80
2019-02-20T19:54:07.739Z,9.63
2019-02-20T19:56:51.946Z,12.87
2019-02-20T19:59:32.739Z,10.87
2019-02-20T20:02:27.911Z,10.90
2019-02-20T20:04:49.065Z,17.20
2019-02-20T20:07:36.126Z,18.03
2019-02-20T20:10:22.054Z,10.98
2019-02-20T20:12:59.953Z,9.90
2019-02-20T20:15:28.911Z,8.43
2019-02-20T20:17:57.841Z,5.27
2019-02-20T20:20:26.811Z,11.07
2019-02-20T20:23:06.227Z,9.50
2019-02-20T20:25:53.506Z,10.00
2019-02-20T20:28:31.455Z,9.40
2019-02-20T20:31:01.757Z,6.30
2019-02-20T20:33:47.631Z,6.83
2019-02-20T20:36:32.995Z,12.00
2019-02-20T20:39:01.918Z,9.70
2019-02-20T20:41:48.867Z,10.47
2019-02-20T20:44:28.175Z,10.00
2019-02-20T20:47:06.343Z,9.90
2019-02-20T20:49:38.282Z,6.90
2019-02-20T20:52:16.451Z,12.33
2019-02-20T20:54:51.170Z,7.73
2019-02-20T20:57:20.089Z,7.47
2019-02-20T21:00:04.351Z,10.90
2019-02-20T21:02:33.283Z,8.33
2019-02-20T21:05:08.258Z,13.80
2019-02-20T21:07:40.136Z,8.43
2019-02-20T21:10:09.094Z,9.93
2019-02-20T21:12:38.022Z,8.37
2019-02-20T21:15:15.997Z,7.60
2019-02-20T21:17:54.171Z,9.93
2019-02-20T21:20:28.909Z,11.57
2019-02-20T21:23:14.786Z,12.10
2019-02-20T21:25:49.420Z,12.13
2019-02-20T21:28:35.000Z,14.60
2019-02-20T21:31:06.727Z,20.77
2019-02-20T21:33:44.594Z,38.97
2019-02-20T21:36:19.523Z,12.80
2019-02-20T21:38:57.390Z,8.00
2019-02-20T21:41:32.391Z,21.77
2019-02-20T21:44:04.120Z,11.87
2019-02-20T21:46:35.754Z,12.33
2019-02-20T21:49:10.620Z,16.03
2019-02-20T21:51:45.289Z,11.30
2019-02-20T21:54:14.214Z,10.33
2019-02-20T21:56:46.097Z,10.47
2019-02-20T21:59:17.937Z,11.73
2019-02-20T22:02:05.226Z,11.70
2019-02-20T22:04:34.156Z,13.40
2019-02-20T22:07:05.665Z,6.93
2019-02-20T22:09:37.726Z,7.23
2019-02-20T22:12:23.218Z,13.03
2019-02-20T22:14:55.070Z,7.83
2019-02-20T22:17:24.088Z,13.60
2019-02-20T22:20:02.315Z,9.07
2019-02-20T22:22:40.254Z,11.27
2019-02-20T22:25:12.186Z,8.23
2019-02-20T22:27:41.143Z,11.07
2019-02-20T22:30:16.181Z,8.07
2019-02-20T22:32:45.130Z,9.60
2019-02-20T22:35:20.000Z,7.97
2019-02-20T22:37:54.889Z,14.80
2019-02-20T22:40:35.718Z,9.60
2019-02-20T22:43:07.381Z,14.03
2019-02-20T22:45:38.992Z,6.50
2019-02-20T22:48:14.039Z,12.40
2019-02-20T22:50:42.973Z,11.03
2019-02-20T22:53:11.942Z,11.10
2019-02-20T22:55:59.086Z,7.53
2019-02-20T22:58:33.984Z,11.50
2019-02-20T23:01:21.091Z,8.03
2019-02-20T23:03:50.259Z,12.47
2019-02-20T23:06:19.328Z,8.50
2019-02-20T23:09:06.387Z,9.83
2019-02-20T23:11:44.355Z,6.57
2019-02-20T23:14:28.332Z,8.20
2019-02-20T23:16:55.724Z,12.03
2019-02-20T23:19:23.141Z,8.43
2019-02-20T23:21:50.523Z,8.37
2019-02-20T23:24:18.015Z,7.03
2019-02-20T23:26:45.477Z,15.93
2019-02-20T23:29:12.898Z,11.77
2019-02-20T23:31:40.285Z,9.40
2019-02-20T23:34:07.771Z,8.90
2019-02-20T23:36:35.171Z,10.97
2019-02-20T23:39:02.589Z,6.83
2019-02-20T23:41:29.979Z,9.20
2019-02-20T23:43:57.391Z,9.50
2019-02-20T23:46:24.784Z,12.20
2019-02-20T23:48:52.220Z,10.67
2019-02-20T23:51:19.618Z,9.77
2019-02-20T23:53:47.030Z,7.57
2019-02-20T23:56:14.502Z,9.70
2019-02-20T23:58:41.915Z,9.87
